Aviation Digital Data Service (ADDS)

Output produced by METARs form (1419 UTC 23 January 2019)
found at http://www.aviationweather.gov/metar/data/
 
METAR text: DNMM 231400Z 22008KT 9999 BKN014 FEW020CB 33/26 Q1011 TEMPO TS
Conditions at: DNMM (LAGOS/IKEJA , NG) observed 1400 UTC 23 January 2019
Temperature: 33.0°C (91°F)
Dewpoint: 26.0°C (79°F) [RH = 67%]
Pressure (altimeter): 29.85 inches Hg (1011.0 mb)
Winds: from the SW (220 degrees) at 9 MPH (8 knots; 4.1 m/s)
Visibility: 6 or more miles (10+ km)
Ceiling: 1400 feet AGL
Clouds: broken clouds at 1400 feet AGL
few clouds at 2000 feet AGL
Weather: no significant weather observed at this time

METAR text: DNMM 231300Z 22009KT 9999 BKN014 FEW020CB 33/26 Q1011 TEMPO TS
Conditions at: DNMM (LAGOS/IKEJA , NG) observed 1300 UTC 23 January 2019
Temperature: 33.0°C (91°F)
Dewpoint: 26.0°C (79°F) [RH = 67%]
Pressure (altimeter): 29.85 inches Hg (1011.0 mb)
Winds: from the SW (220 degrees) at 10 MPH (9 knots; 4.6 m/s)
Visibility: 6 or more miles (10+ km)
Ceiling: 1400 feet AGL
Clouds: broken clouds at 1400 feet AGL
few clouds at 2000 feet AGL
Weather: no significant weather observed at this time

METAR text: DNMM 231200Z 18006KT 9999 BKN015 FEW020CB 34/27 Q1012 NOSIG RMK CB NW TO NE
Conditions at: DNMM (LAGOS/IKEJA , NG) observed 1200 UTC 23 January 2019
Temperature: 34.0°C (93°F)
Dewpoint: 27.0°C (81°F) [RH = 67%]
Pressure (altimeter): 29.88 inches Hg (1012.0 mb)
Winds: from the S (180 degrees) at 7 MPH (6 knots; 3.1 m/s)
Visibility: 6 or more miles (10+ km)
Ceiling: 1500 feet AGL
Clouds: broken clouds at 1500 feet AGL
few clouds at 2000 feet AGL
Weather: no significant weather observed at this time

METAR text: DNMM 231100Z 17008KT 9999 BKN014 32/27 Q1013 NOSIG
Conditions at: DNMM (LAGOS/IKEJA , NG) observed 1100 UTC 23 January 2019
Temperature: 32.0°C (90°F)
Dewpoint: 27.0°C (81°F) [RH = 75%]
Pressure (altimeter): 29.91 inches Hg (1013.0 mb)
Winds: from the S (170 degrees) at 9 MPH (8 knots; 4.1 m/s)
Visibility: 6 or more miles (10+ km)
Ceiling: 1400 feet AGL
Clouds: broken clouds at 1400 feet AGL
Weather: no significant weather observed at this time

METAR text: DNMM 231000Z 18004KT 8000 BKN013 31/27 Q1014 NOSIG
Conditions at: DNMM (LAGOS/IKEJA , NG) observed 1000 UTC 23 January 2019
Temperature: 31.0°C (88°F)
Dewpoint: 27.0°C (81°F) [RH = 79%]
Pressure (altimeter): 29.94 inches Hg (1014.0 mb)
Winds: from the S (180 degrees) at 5 MPH (4 knots; 2.1 m/s)
Visibility: 5 miles ( 8 km)
Ceiling: 1300 feet AGL
Clouds: broken clouds at 1300 feet AGL
Weather: no significant weather observed at this time

METAR text: DNMM 230900Z 27005KT 7000 SCT013 30/27 Q1014 NOSIG
Conditions at: DNMM (LAGOS/IKEJA , NG) observed 0900 UTC 23 January 2019
Temperature: 30.0°C (86°F)
Dewpoint: 27.0°C (81°F) [RH = 84%]
Pressure (altimeter): 29.94 inches Hg (1014.0 mb)
Winds: from the W (270 degrees) at 6 MPH (5 knots; 2.6 m/s)
Visibility: 4 miles ( 7 km)
Ceiling: at least 12,000 feet AGL
Clouds: scattered clouds at 1300 feet AGL
Weather: no significant weather observed at this time

METAR text: DNMM 230800Z VRB02KT 5000 HZ SCT013 29/27 Q1014 NOSIG
Conditions at: DNMM (LAGOS/IKEJA , NG) observed 0800 UTC 23 January 2019
Temperature: 29.0°C (84°F)
Dewpoint: 27.0°C (81°F) [RH = 89%]
Pressure (altimeter): 29.94 inches Hg (1014.0 mb)
Winds: variable direction winds at 2 MPH (2 knots; 1.0 m/s)
Visibility: 3 miles ( 5 km)
Ceiling: at least 12,000 feet AGL
Clouds: scattered clouds at 1300 feet AGL
Weather: HZ  (haze)

METAR text: DNMM 230700Z 34004KT 5000 HZ BKN011 27/27 Q1013 TEMPO 3000 HZ
Conditions at: DNMM (LAGOS/IKEJA , NG) observed 0700 UTC 23 January 2019
Temperature: 27.0°C (81°F)
Dewpoint: 27.0°C (81°F) [RH = 100%]
Pressure (altimeter): 29.91 inches Hg (1013.0 mb)
Winds: from the NNW (340 degrees) at 5 MPH (4 knots; 2.1 m/s)
Visibility: 3 miles ( 5 km)
Ceiling: 1100 feet AGL
Clouds: broken clouds at 1100 feet AGL
Weather: HZ  (haze)

METAR text: DNMM 230600Z 30003KT 7000 SCT011 27/26 Q1012 TEMPO 5000 BR
Conditions at: DNMM (LAGOS/IKEJA , NG) observed 0600 UTC 23 January 2019
Temperature: 27.0°C (81°F)
Dewpoint: 26.0°C (79°F) [RH = 94%]
Pressure (altimeter): 29.88 inches Hg (1012.0 mb)
Winds: from the WNW (300 degrees) at 3 MPH (3 knots; 1.5 m/s)
Visibility: 4 miles ( 7 km)
Ceiling: at least 12,000 feet AGL
Clouds: scattered clouds at 1100 feet AGL
Weather: no significant weather observed at this time

METAR text: DNMM 230500Z VRB02KT 9999 FEW011 27/26 Q1012 NOSIG
Conditions at: DNMM (LAGOS/IKEJA , NG) observed 0500 UTC 23 January 2019
Temperature: 27.0°C (81°F)
Dewpoint: 26.0°C (79°F) [RH = 94%]
Pressure (altimeter): 29.88 inches Hg (1012.0 mb)
Winds: variable direction winds at 2 MPH (2 knots; 1.0 m/s)
Visibility: 6 or more miles (10+ km)
Ceiling: at least 12,000 feet AGL
Clouds: few clouds at 1100 feet AGL
Weather: no significant weather observed at this time

METAR text: DNMM 230400Z VRB02KT 9999 FEW011 27/26 Q1011 NOSIG
Conditions at: DNMM (LAGOS/IKEJA , NG) observed 0400 UTC 23 January 2019
Temperature: 27.0°C (81°F)
Dewpoint: 26.0°C (79°F) [RH = 94%]
Pressure (altimeter): 29.85 inches Hg (1011.0 mb)
Winds: variable direction winds at 2 MPH (2 knots; 1.0 m/s)
Visibility: 6 or more miles (10+ km)
Ceiling: at least 12,000 feet AGL
Clouds: few clouds at 1100 feet AGL
Weather: no significant weather observed at this time

METAR text: DNMM 230300Z VRB02KT 9999 FEW012 28/26 Q1012 NOSIG
Conditions at: DNMM (LAGOS/IKEJA , NG) observed 0300 UTC 23 January 2019
Temperature: 28.0°C (82°F)
Dewpoint: 26.0°C (79°F) [RH = 89%]
Pressure (altimeter): 29.88 inches Hg (1012.0 mb)
Winds: variable direction winds at 2 MPH (2 knots; 1.0 m/s)
Visibility: 6 or more miles (10+ km)
Ceiling: at least 12,000 feet AGL
Clouds: few clouds at 1200 feet AGL
Weather: no significant weather observed at this time

METAR text: DNMM 230200Z VRB02KT 9999 FEW012 28/26 Q1012 NOSIG
Conditions at: DNMM (LAGOS/IKEJA , NG) observed 0200 UTC 23 January 2019
Temperature: 28.0°C (82°F)
Dewpoint: 26.0°C (79°F) [RH = 89%]
Pressure (altimeter): 29.88 inches Hg (1012.0 mb)
Winds: variable direction winds at 2 MPH (2 knots; 1.0 m/s)
Visibility: 6 or more miles (10+ km)
Ceiling: at least 12,000 feet AGL
Clouds: few clouds at 1200 feet AGL
Weather: no significant weather observed at this time

METAR text: DNMM 230100Z VRB02KT 9999 FEW012 28/26 Q1012 NOSIG
Conditions at: DNMM (LAGOS/IKEJA , NG) observed 0100 UTC 23 January 2019
Temperature: 28.0°C (82°F)
Dewpoint: 26.0°C (79°F) [RH = 89%]
Pressure (altimeter): 29.88 inches Hg (1012.0 mb)
Winds: variable direction winds at 2 MPH (2 knots; 1.0 m/s)
Visibility: 6 or more miles (10+ km)
Ceiling: at least 12,000 feet AGL
Clouds: few clouds at 1200 feet AGL
Weather: no significant weather observed at this time

METAR text: DNMM 230000Z 19003KT 9999 FEW012 28/26 Q1013 NOSIG
Conditions at: DNMM (LAGOS/IKEJA , NG) observed 0000 UTC 23 January 2019
Temperature: 28.0°C (82°F)
Dewpoint: 26.0°C (79°F) [RH = 89%]
Pressure (altimeter): 29.91 inches Hg (1013.0 mb)
Winds: from the S (190 degrees) at 3 MPH (3 knots; 1.5 m/s)
Visibility: 6 or more miles (10+ km)
Ceiling: at least 12,000 feet AGL
Clouds: few clouds at 1200 feet AGL
Weather: no significant weather observed at this time

METAR text: DNMM 222300Z 19003KT 9999 FEW013 29/26 Q1013 NOSIG
Conditions at: DNMM (LAGOS/IKEJA , NG) observed 2300 UTC 22 January 2019
Temperature: 29.0°C (84°F)
Dewpoint: 26.0°C (79°F) [RH = 84%]
Pressure (altimeter): 29.91 inches Hg (1013.0 mb)
Winds: from the S (190 degrees) at 3 MPH (3 knots; 1.5 m/s)
Visibility: 6 or more miles (10+ km)
Ceiling: at least 12,000 feet AGL
Clouds: few clouds at 1300 feet AGL
Weather: no significant weather observed at this time

METAR text: DNMM 222200Z 19005KT 9999 FEW013 29/26 Q1013 NOSIG
Conditions at: DNMM (LAGOS/IKEJA , NG) observed 2200 UTC 22 January 2019
Temperature: 29.0°C (84°F)
Dewpoint: 26.0°C (79°F) [RH = 84%]
Pressure (altimeter): 29.91 inches Hg (1013.0 mb)
Winds: from the S (190 degrees) at 6 MPH (5 knots; 2.6 m/s)
Visibility: 6 or more miles (10+ km)
Ceiling: at least 12,000 feet AGL
Clouds: few clouds at 1300 feet AGL
Weather: no significant weather observed at this time

METAR text: DNMM 222100Z 16004KT 9999 FEW013 29/26 Q1013 NOSIG
Conditions at: DNMM (LAGOS/IKEJA , NG) observed 2100 UTC 22 January 2019
Temperature: 29.0°C (84°F)
Dewpoint: 26.0°C (79°F) [RH = 84%]
Pressure (altimeter): 29.91 inches Hg (1013.0 mb)
Winds: from the SSE (160 degrees) at 5 MPH (4 knots; 2.1 m/s)
Visibility: 6 or more miles (10+ km)
Ceiling: at least 12,000 feet AGL
Clouds: few clouds at 1300 feet AGL
Weather: no significant weather observed at this time

METAR text: DNMM 222000Z 21007KT 9999 FEW013 29/26 Q1013 NOSIG
Conditions at: DNMM (LAGOS/IKEJA , NG) observed 2000 UTC 22 January 2019
Temperature: 29.0°C (84°F)
Dewpoint: 26.0°C (79°F) [RH = 84%]
Pressure (altimeter): 29.91 inches Hg (1013.0 mb)
Winds: from the SSW (210 degrees) at 8 MPH (7 knots; 3.6 m/s)
Visibility: 6 or more miles (10+ km)
Ceiling: at least 12,000 feet AGL
Clouds: few clouds at 1300 feet AGL
Weather: no significant weather observed at this time

METAR text: DNMM 221900Z 18004KT 9999 FEW013 29/26 Q1012 NOSIG
Conditions at: DNMM (LAGOS/IKEJA , NG) observed 1900 UTC 22 January 2019
Temperature: 29.0°C (84°F)
Dewpoint: 26.0°C (79°F) [RH = 84%]
Pressure (altimeter): 29.88 inches Hg (1012.0 mb)
Winds: from the S (180 degrees) at 5 MPH (4 knots; 2.1 m/s)
Visibility: 6 or more miles (10+ km)
Ceiling: at least 12,000 feet AGL
Clouds: few clouds at 1300 feet AGL
Weather: no significant weather observed at this time

METAR text: DNMM 221800Z 16004KT 9999 FEW013 30/26 Q1011 NOSIG
Conditions at: DNMM (LAGOS/IKEJA , NG) observed 1800 UTC 22 January 2019
Temperature: 30.0°C (86°F)
Dewpoint: 26.0°C (79°F) [RH = 79%]
Pressure (altimeter): 29.85 inches Hg (1011.0 mb)
Winds: from the SSE (160 degrees) at 5 MPH (4 knots; 2.1 m/s)
Visibility: 6 or more miles (10+ km)
Ceiling: at least 12,000 feet AGL
Clouds: few clouds at 1300 feet AGL
Weather: no significant weather observed at this time

METAR text: DNMM 221700Z 19005KT 9999 FEW013 31/26 Q1011 NOSIG
Conditions at: DNMM (LAGOS/IKEJA , NG) observed 1700 UTC 22 January 2019
Temperature: 31.0°C (88°F)
Dewpoint: 26.0°C (79°F) [RH = 75%]
Pressure (altimeter): 29.85 inches Hg (1011.0 mb)
Winds: from the S (190 degrees) at 6 MPH (5 knots; 2.6 m/s)
Visibility: 6 or more miles (10+ km)
Ceiling: at least 12,000 feet AGL
Clouds: few clouds at 1300 feet AGL
Weather: no significant weather observed at this time

METAR text: DNMM 221600Z 15004KT 9999 BKN014 FEW020CB 33/26 Q1010 NOSIG
Conditions at: DNMM (LAGOS/IKEJA , NG) observed 1600 UTC 22 January 2019
Temperature: 33.0°C (91°F)
Dewpoint: 26.0°C (79°F) [RH = 67%]
Pressure (altimeter): 29.82 inches Hg (1010.0 mb)
Winds: from the SSE (150 degrees) at 5 MPH (4 knots; 2.1 m/s)
Visibility: 6 or more miles (10+ km)
Ceiling: 1400 feet AGL
Clouds: broken clouds at 1400 feet AGL
few clouds at 2000 feet AGL
Weather: no significant weather observed at this time

METAR text: DNMM 221500Z 20007KT 9999 BKN014 FEW020CB 33/27 Q1010 NOSIG
Conditions at: DNMM (LAGOS/IKEJA , NG) observed 1500 UTC 22 January 2019
Temperature: 33.0°C (91°F)
Dewpoint: 27.0°C (81°F) [RH = 71%]
Pressure (altimeter): 29.82 inches Hg (1010.0 mb)
Winds: from the SSW (200 degrees) at 8 MPH (7 knots; 3.6 m/s)
Visibility: 6 or more miles (10+ km)
Ceiling: 1400 feet AGL
Clouds: broken clouds at 1400 feet AGL
few clouds at 2000 feet AGL
Weather: no significant weather observed at this time

METAR text: DNMM 221400Z 18008KT 9999 BKN014 FEW020CB 33/26 Q1011 NOSIG
Conditions at: DNMM (LAGOS/IKEJA , NG) observed 1400 UTC 22 January 2019
Temperature: 33.0°C (91°F)
Dewpoint: 26.0°C (79°F) [RH = 67%]
Pressure (altimeter): 29.85 inches Hg (1011.0 mb)
Winds: from the S (180 degrees) at 9 MPH (8 knots; 4.1 m/s)
Visibility: 6 or more miles (10+ km)
Ceiling: 1400 feet AGL
Clouds: broken clouds at 1400 feet AGL
few clouds at 2000 feet AGL
Weather: no significant weather observed at this time

METAR text: DNMM 221300Z 16007KT 9999 BKN014 FEW020CB 34/26 Q1012 NOSIG
Conditions at: DNMM (LAGOS/IKEJA , NG) observed 1300 UTC 22 January 2019
Temperature: 34.0°C (93°F)
Dewpoint: 26.0°C (79°F) [RH = 63%]
Pressure (altimeter): 29.88 inches Hg (1012.0 mb)
Winds: from the SSE (160 degrees) at 8 MPH (7 knots; 3.6 m/s)
Visibility: 6 or more miles (10+ km)
Ceiling: 1400 feet AGL
Clouds: broken clouds at 1400 feet AGL
few clouds at 2000 feet AGL
Weather: no significant weather observed at this time

METAR text: DNMM 221200Z 31003KT 9999 BKN014 33/26 Q1013 NOSIG
Conditions at: DNMM (LAGOS/IKEJA , NG) observed 1200 UTC 22 January 2019
Temperature: 33.0°C (91°F)
Dewpoint: 26.0°C (79°F) [RH = 67%]
Pressure (altimeter): 29.91 inches Hg (1013.0 mb)
Winds: from the NW (310 degrees) at 3 MPH (3 knots; 1.5 m/s)
Visibility: 6 or more miles (10+ km)
Ceiling: 1400 feet AGL
Clouds: broken clouds at 1400 feet AGL
Weather: no significant weather observed at this time

METAR text: DNMM 221100Z 26003KT 8000 BKN014 33/26 Q1014 NOSIG
Conditions at: DNMM (LAGOS/IKEJA , NG) observed 1100 UTC 22 January 2019
Temperature: 33.0°C (91°F)
Dewpoint: 26.0°C (79°F) [RH = 67%]
Pressure (altimeter): 29.94 inches Hg (1014.0 mb)
Winds: from the W (260 degrees) at 3 MPH (3 knots; 1.5 m/s)
Visibility: 5 miles ( 8 km)
Ceiling: 1400 feet AGL
Clouds: broken clouds at 1400 feet AGL
Weather: no significant weather observed at this time

METAR text: DNMM 221000Z 22003KT 5000 HZ BKN013 30/27 Q1014 BECMG 7000 NSW
Conditions at: DNMM (LAGOS/IKEJA , NG) observed 1000 UTC 22 January 2019
Temperature: 30.0°C (86°F)
Dewpoint: 27.0°C (81°F) [RH = 84%]
Pressure (altimeter): 29.94 inches Hg (1014.0 mb)
Winds: from the SW (220 degrees) at 3 MPH (3 knots; 1.5 m/s)
Visibility: 3 miles ( 5 km)
Ceiling: 1300 feet AGL
Clouds: broken clouds at 1300 feet AGL
Weather: HZ  (haze)

METAR text: DNMM 220800Z VRB02KT 1800 HZ SCT011 FEW019CB 27/25 Q1014 TEMPO 1500 HZ
Conditions at: DNMM (LAGOS/IKEJA , NG) observed 0800 UTC 22 January 2019
Temperature: 27.0°C (81°F)
Dewpoint: 25.0°C (77°F) [RH = 89%]
Pressure (altimeter): 29.94 inches Hg (1014.0 mb)
Winds: variable direction winds at 2 MPH (2 knots; 1.0 m/s)
Visibility: 1.12 miles (1.80 km)
Ceiling: at least 12,000 feet AGL
Clouds: scattered clouds at 1100 feet AGL
few clouds at 1900 feet AGL
Weather: HZ  (haze)

METAR text: DNMM 220700Z 00000KT 4000 HZ FEW009 25/24 Q1013 TEMPO 5000 HZ
Conditions at: DNMM (LAGOS/IKEJA , NG) observed 0700 UTC 22 January 2019
Temperature: 25.0°C (77°F)
Dewpoint: 24.0°C (75°F) [RH = 94%]
Pressure (altimeter): 29.91 inches Hg (1013.0 mb)
Winds: calm
Visibility: 2.49 miles (4.01 km)
Ceiling: at least 12,000 feet AGL
Clouds: few clouds at 900 feet AGL
Weather: HZ  (haze)

METAR text: DNMM 220500Z VRB02KT 8000 FEW009 25/24 Q1012 NOSIG
Conditions at: DNMM (LAGOS/IKEJA , NG) observed 0500 UTC 22 January 2019
Temperature: 25.0°C (77°F)
Dewpoint: 24.0°C (75°F) [RH = 94%]
Pressure (altimeter): 29.88 inches Hg (1012.0 mb)
Winds: variable direction winds at 2 MPH (2 knots; 1.0 m/s)
Visibility: 5 miles ( 8 km)
Ceiling: at least 12,000 feet AGL
Clouds: few clouds at 900 feet AGL
Weather: no significant weather observed at this time

METAR text: DNMM 220400Z VRB02KT 8000 FEW009 25/24 Q1012 NOSIG
Conditions at: DNMM (LAGOS/IKEJA , NG) observed 0400 UTC 22 January 2019
Temperature: 25.0°C (77°F)
Dewpoint: 24.0°C (75°F) [RH = 94%]
Pressure (altimeter): 29.88 inches Hg (1012.0 mb)
Winds: variable direction winds at 2 MPH (2 knots; 1.0 m/s)
Visibility: 5 miles ( 8 km)
Ceiling: at least 12,000 feet AGL
Clouds: few clouds at 900 feet AGL
Weather: no significant weather observed at this time

METAR text: DNMM 220300Z 32003KT 8000 SCT009 25/24 Q1012 NOSIG
Conditions at: DNMM (LAGOS/IKEJA , NG) observed 0300 UTC 22 January 2019
Temperature: 25.0°C (77°F)
Dewpoint: 24.0°C (75°F) [RH = 94%]
Pressure (altimeter): 29.88 inches Hg (1012.0 mb)
Winds: from the NW (320 degrees) at 3 MPH (3 knots; 1.5 m/s)
Visibility: 5 miles ( 8 km)
Ceiling: at least 12,000 feet AGL
Clouds: scattered clouds at 900 feet AGL
Weather: no significant weather observed at this time

Forecast for: DNMM (LAGOS/IKEJA , NG)
Text: TAF DNMM 230955Z 2312/2418 20010KT 9999 BKN014
Forecast period: 1200 to 1700 UTC 23 January 2019
Forecast type: FROM: standard forecast or significant change
Winds: from the SSW (200 degrees) at 12 MPH (10 knots; 5.1 m/s)
Visibility: 6 or more miles 10+ km)
Ceiling: 1400 feet AGL
Clouds: broken clouds at 1400 feet AGL
Weather: no significant weather forecast for this period
Text: TEMPO 2312/2317 BKN014 FEW020CB
Forecast period: 1200 to 1700 UTC 23 January 2019
Forecast type: TEMPORARY: The following changes expected for less than half the time period
Visibility: missing
Ceiling: 1400 feet AGL
Clouds: broken clouds at 1400 feet AGL
few clouds at 2000 feet AGL
Weather: no significant weather forecast for this period
Text: PROB30 2314/2317 TS
Forecast period: 1400 to 1700 UTC 23 January 2019
Forecast type: PROBABLE: 30 percent likelihood of the following during this time
Visibility: missing
Ceiling: unknown
Clouds: missing
Weather: TS  (thunderstorm)
Text: BECMG 2317/2319 VRB02KT SCT011
Forecast period: 1700 UTC 23 January 2019 to 1800 UTC 24 January 2019
Forecast type: BECOMING: Conditions expected to become as follows by 1900 UTC 23 January 2019
Winds: variable direction winds at 2 MPH (2 knots; 1.0 m/s)
Visibility: 6 or more miles 10+ km)
Ceiling: at least 12,000 feet AGL
Clouds: scattered clouds at 1100 feet AGL
Weather: no significant weather forecast for this period